sensor_id;sensor_type;location;lat;lon;timestamp;P1;durP1;ratioP1;P2;durP2;ratioP2
67896;SDS011;54698;48.428;9.964;2022-12-18T00:01:24;41.10;;;15.43;;
67896;SDS011;54698;48.428;9.964;2022-12-18T00:03:51;47.43;;;17.27;;
67896;SDS011;54698;48.428;9.964;2022-12-18T00:06:19;46.90;;;17.97;;
67896;SDS011;54698;48.428;9.964;2022-12-18T00:08:46;42.33;;;14.33;;
67896;SDS011;54698;48.428;9.964;2022-12-18T00:11:12;51.60;;;16.53;;
67896;SDS011;54698;48.428;9.964;2022-12-18T00:13:42;48.63;;;17.07;;
67896;SDS011;54698;48.428;9.964;2022-12-18T00:16:09;54.07;;;18.87;;
67896;SDS011;54698;48.428;9.964;2022-12-18T00:18:37;49.30;;;16.57;;
67896;SDS011;54698;48.428;9.964;2022-12-18T00:21:04;49.67;;;16.40;;
67896;SDS011;54698;48.428;9.964;2022-12-18T00:23:33;51.40;;;16.30;;
67896;SDS011;54698;48.428;9.964;2022-12-18T00:26:00;55.47;;;15.33;;
67896;SDS011;54698;48.428;9.964;2022-12-18T00:28:27;48.00;;;15.97;;
67896;SDS011;54698;48.428;9.964;2022-12-18T00:31:00;41.07;;;16.03;;
67896;SDS011;54698;48.428;9.964;2022-12-18T00:33:26;53.43;;;17.47;;
67896;SDS011;54698;48.428;9.964;2022-12-18T00:35:52;49.00;;;17.80;;
67896;SDS011;54698;48.428;9.964;2022-12-18T00:38:18;44.70;;;16.93;;
67896;SDS011;54698;48.428;9.964;2022-12-18T00:40:44;50.40;;;16.10;;
67896;SDS011;54698;48.428;9.964;2022-12-18T00:43:09;44.37;;;15.07;;
67896;SDS011;54698;48.428;9.964;2022-12-18T00:45:35;44.17;;;14.80;;
67896;SDS011;54698;48.428;9.964;2022-12-18T00:48:03;42.50;;;16.70;;
67896;SDS011;54698;48.428;9.964;2022-12-18T00:50:29;50.17;;;17.13;;
67896;SDS011;54698;48.428;9.964;2022-12-18T00:52:55;46.23;;;16.40;;
67896;SDS011;54698;48.428;9.964;2022-12-18T00:55:21;47.40;;;15.70;;
67896;SDS011;54698;48.428;9.964;2022-12-18T00:57:47;56.93;;;17.20;;
67896;SDS011;54698;48.428;9.964;2022-12-18T01:00:13;47.47;;;17.67;;
67896;SDS011;54698;48.428;9.964;2022-12-18T01:02:40;65.77;;;17.50;;
67896;SDS011;54698;48.428;9.964;2022-12-18T01:05:08;55.47;;;17.10;;
67896;SDS011;54698;48.428;9.964;2022-12-18T01:07:36;44.57;;;16.03;;
67896;SDS011;54698;48.428;9.964;2022-12-18T01:10:02;58.20;;;17.23;;
67896;SDS011;54698;48.428;9.964;2022-12-18T01:12:29;53.23;;;17.00;;
67896;SDS011;54698;48.428;9.964;2022-12-18T01:14:55;57.90;;;18.20;;
67896;SDS011;54698;48.428;9.964;2022-12-18T01:17:21;44.07;;;15.70;;
67896;SDS011;54698;48.428;9.964;2022-12-18T01:19:47;52.60;;;16.13;;
67896;SDS011;54698;48.428;9.964;2022-12-18T01:22:14;46.57;;;16.97;;
67896;SDS011;54698;48.428;9.964;2022-12-18T01:24:40;46.70;;;15.40;;
67896;SDS011;54698;48.428;9.964;2022-12-18T01:27:06;49.97;;;16.77;;
67896;SDS011;54698;48.428;9.964;2022-12-18T01:29:32;48.57;;;17.80;;
67896;SDS011;54698;48.428;9.964;2022-12-18T01:31:57;44.33;;;16.43;;
67896;SDS011;54698;48.428;9.964;2022-12-18T01:34:23;52.30;;;17.10;;
67896;SDS011;54698;48.428;9.964;2022-12-18T01:36:49;44.43;;;15.20;;
67896;SDS011;54698;48.428;9.964;2022-12-18T01:39:17;69.30;;;20.47;;
67896;SDS011;54698;48.428;9.964;2022-12-18T01:41:43;55.93;;;17.03;;
67896;SDS011;54698;48.428;9.964;2022-12-18T01:47:24;43.28;;;14.90;;
67896;SDS011;54698;48.428;9.964;2022-12-18T01:49:54;60.33;;;19.10;;
67896;SDS011;54698;48.428;9.964;2022-12-18T01:52:22;45.27;;;16.97;;
67896;SDS011;54698;48.428;9.964;2022-12-18T01:54:52;51.97;;;16.43;;
67896;SDS011;54698;48.428;9.964;2022-12-18T01:57:19;54.00;;;16.97;;
67896;SDS011;54698;48.428;9.964;2022-12-18T01:59:45;48.17;;;16.33;;
67896;SDS011;54698;48.428;9.964;2022-12-18T02:02:17;48.47;;;18.80;;
67896;SDS011;54698;48.428;9.964;2022-12-18T02:04:43;47.90;;;16.70;;
67896;SDS011;54698;48.428;9.964;2022-12-18T02:07:11;53.73;;;18.00;;
67896;SDS011;54698;48.428;9.964;2022-12-18T02:09:46;58.70;;;16.37;;
67896;SDS011;54698;48.428;9.964;2022-12-18T02:12:19;43.47;;;16.73;;
67896;SDS011;54698;48.428;9.964;2022-12-18T02:14:49;61.83;;;19.13;;
67896;SDS011;54698;48.428;9.964;2022-12-18T02:17:25;47.23;;;17.73;;
67896;SDS011;54698;48.428;9.964;2022-12-18T02:20:04;61.07;;;18.90;;
67896;SDS011;54698;48.428;9.964;2022-12-18T02:22:47;49.27;;;17.17;;
67896;SDS011;54698;48.428;9.964;2022-12-18T02:25:32;51.87;;;16.43;;
67896;SDS011;54698;48.428;9.964;2022-12-18T02:28:16;59.47;;;17.20;;
67896;SDS011;54698;48.428;9.964;2022-12-18T02:30:46;53.27;;;14.53;;
67896;SDS011;54698;48.428;9.964;2022-12-18T02:33:14;56.80;;;21.07;;
67896;SDS011;54698;48.428;9.964;2022-12-18T02:35:40;56.07;;;18.80;;
67896;SDS011;54698;48.428;9.964;2022-12-18T02:38:09;55.50;;;16.97;;
67896;SDS011;54698;48.428;9.964;2022-12-18T02:40:37;65.53;;;20.97;;
67896;SDS011;54698;48.428;9.964;2022-12-18T02:43:08;49.20;;;16.00;;
67896;SDS011;54698;48.428;9.964;2022-12-18T02:45:35;53.83;;;17.80;;
67896;SDS011;54698;48.428;9.964;2022-12-18T02:48:10;54.47;;;20.17;;
67896;SDS011;54698;48.428;9.964;2022-12-18T02:50:38;59.53;;;19.90;;
67896;SDS011;54698;48.428;9.964;2022-12-18T02:53:13;47.17;;;17.13;;
67896;SDS011;54698;48.428;9.964;2022-12-18T02:55:51;68.30;;;19.10;;
67896;SDS011;54698;48.428;9.964;2022-12-18T02:58:29;46.80;;;18.13;;
67896;SDS011;54698;48.428;9.964;2022-12-18T03:01:03;58.33;;;18.47;;
67896;SDS011;54698;48.428;9.964;2022-12-18T03:03:35;52.15;;;18.38;;
67896;SDS011;54698;48.428;9.964;2022-12-18T03:06:07;59.37;;;19.20;;
67896;SDS011;54698;48.428;9.964;2022-12-18T03:08:38;55.87;;;17.67;;
67896;SDS011;54698;48.428;9.964;2022-12-18T03:11:08;45.93;;;16.90;;
67896;SDS011;54698;48.428;9.964;2022-12-18T03:13:39;49.37;;;19.30;;
67896;SDS011;54698;48.428;9.964;2022-12-18T03:16:11;45.57;;;17.93;;
67896;SDS011;54698;48.428;9.964;2022-12-18T03:18:45;42.03;;;16.15;;
67896;SDS011;54698;48.428;9.964;2022-12-18T03:21:14;57.40;;;17.73;;
67896;SDS011;54698;48.428;9.964;2022-12-18T03:23:46;54.20;;;16.40;;
67896;SDS011;54698;48.428;9.964;2022-12-18T03:26:15;49.13;;;14.93;;
67896;SDS011;54698;48.428;9.964;2022-12-18T03:28:46;54.97;;;19.57;;
67896;SDS011;54698;48.428;9.964;2022-12-18T03:31:18;57.33;;;16.37;;
67896;SDS011;54698;48.428;9.964;2022-12-18T03:33:51;56.83;;;18.23;;
67896;SDS011;54698;48.428;9.964;2022-12-18T03:36:19;53.00;;;16.97;;
67896;SDS011;54698;48.428;9.964;2022-12-18T03:38:45;49.37;;;19.40;;
67896;SDS011;54698;48.428;9.964;2022-12-18T03:41:13;58.13;;;16.67;;
67896;SDS011;54698;48.428;9.964;2022-12-18T03:43:47;59.00;;;20.00;;
67896;SDS011;54698;48.428;9.964;2022-12-18T03:48:51;46.50;;;17.60;;
67896;SDS011;54698;48.428;9.964;2022-12-18T03:51:24;60.17;;;17.83;;
67896;SDS011;54698;48.428;9.964;2022-12-18T03:53:59;51.67;;;18.70;;
67896;SDS011;54698;48.428;9.964;2022-12-18T03:56:28;61.53;;;21.67;;
67896;SDS011;54698;48.428;9.964;2022-12-18T03:58:59;48.77;;;18.73;;
67896;SDS011;54698;48.428;9.964;2022-12-18T04:01:31;56.10;;;17.20;;
67896;SDS011;54698;48.428;9.964;2022-12-18T04:04:00;49.03;;;18.80;;
67896;SDS011;54698;48.428;9.964;2022-12-18T04:06:28;64.80;;;20.27;;
67896;SDS011;54698;48.428;9.964;2022-12-18T04:08:55;55.17;;;20.20;;
67896;SDS011;54698;48.428;9.964;2022-12-18T04:11:22;53.17;;;17.57;;
67896;SDS011;54698;48.428;9.964;2022-12-18T04:13:48;50.70;;;18.13;;
67896;SDS011;54698;48.428;9.964;2022-12-18T04:16:15;44.63;;;17.27;;
67896;SDS011;54698;48.428;9.964;2022-12-18T04:18:41;52.97;;;19.30;;
67896;SDS011;54698;48.428;9.964;2022-12-18T04:21:07;52.07;;;17.20;;
67896;SDS011;54698;48.428;9.964;2022-12-18T04:23:33;41.07;;;18.77;;
67896;SDS011;54698;48.428;9.964;2022-12-18T04:25:59;63.87;;;20.40;;
67896;SDS011;54698;48.428;9.964;2022-12-18T04:28:24;59.33;;;19.00;;
67896;SDS011;54698;48.428;9.964;2022-12-18T04:30:50;53.43;;;17.60;;
67896;SDS011;54698;48.428;9.964;2022-12-18T04:33:17;49.63;;;18.63;;
67896;SDS011;54698;48.428;9.964;2022-12-18T04:35:43;59.93;;;20.10;;
67896;SDS011;54698;48.428;9.964;2022-12-18T04:38:10;63.20;;;19.13;;
67896;SDS011;54698;48.428;9.964;2022-12-18T04:40:36;62.60;;;22.33;;
67896;SDS011;54698;48.428;9.964;2022-12-18T04:43:02;56.33;;;19.17;;
67896;SDS011;54698;48.428;9.964;2022-12-18T04:45:29;56.30;;;18.57;;
67896;SDS011;54698;48.428;9.964;2022-12-18T04:47:56;58.07;;;21.30;;
67896;SDS011;54698;48.428;9.964;2022-12-18T04:50:23;50.43;;;19.60;;
67896;SDS011;54698;48.428;9.964;2022-12-18T04:52:49;55.23;;;20.00;;
67896;SDS011;54698;48.428;9.964;2022-12-18T04:55:15;51.13;;;19.67;;
67896;SDS011;54698;48.428;9.964;2022-12-18T04:57:41;56.23;;;20.43;;
67896;SDS011;54698;48.428;9.964;2022-12-18T05:00:07;55.27;;;20.40;;
67896;SDS011;54698;48.428;9.964;2022-12-18T05:02:35;66.30;;;21.70;;
67896;SDS011;54698;48.428;9.964;2022-12-18T05:05:00;59.50;;;21.10;;
67896;SDS011;54698;48.428;9.964;2022-12-18T05:07:28;60.33;;;20.43;;
67896;SDS011;54698;48.428;9.964;2022-12-18T05:09:54;73.57;;;22.70;;
67896;SDS011;54698;48.428;9.964;2022-12-18T05:12:20;63.10;;;19.23;;
67896;SDS011;54698;48.428;9.964;2022-12-18T05:14:46;59.37;;;19.07;;
67896;SDS011;54698;48.428;9.964;2022-12-18T05:17:12;44.80;;;18.53;;
67896;SDS011;54698;48.428;9.964;2022-12-18T05:19:38;52.77;;;20.73;;
67896;SDS011;54698;48.428;9.964;2022-12-18T05:22:04;64.03;;;19.10;;
67896;SDS011;54698;48.428;9.964;2022-12-18T05:24:31;63.50;;;19.50;;
67896;SDS011;54698;48.428;9.964;2022-12-18T05:26:57;61.83;;;23.53;;
67896;SDS011;54698;48.428;9.964;2022-12-18T05:29:22;62.63;;;19.97;;
67896;SDS011;54698;48.428;9.964;2022-12-18T05:31:48;53.23;;;19.57;;
67896;SDS011;54698;48.428;9.964;2022-12-18T05:34:14;55.57;;;19.57;;
67896;SDS011;54698;48.428;9.964;2022-12-18T05:36:40;63.93;;;19.47;;
67896;SDS011;54698;48.428;9.964;2022-12-18T05:39:06;70.53;;;23.83;;
67896;SDS011;54698;48.428;9.964;2022-12-18T05:41:33;62.50;;;20.13;;
67896;SDS011;54698;48.428;9.964;2022-12-18T05:43:59;56.20;;;19.17;;
67896;SDS011;54698;48.428;9.964;2022-12-18T05:46:25;64.90;;;18.77;;
67896;SDS011;54698;48.428;9.964;2022-12-18T05:48:51;66.97;;;21.00;;
67896;SDS011;54698;48.428;9.964;2022-12-18T05:51:18;66.93;;;22.30;;
67896;SDS011;54698;48.428;9.964;2022-12-18T05:53:46;65.37;;;23.37;;
67896;SDS011;54698;48.428;9.964;2022-12-18T05:56:14;80.60;;;24.73;;
67896;SDS011;54698;48.428;9.964;2022-12-18T05:58:44;57.00;;;18.50;;
67896;SDS011;54698;48.428;9.964;2022-12-18T06:01:13;73.70;;;21.23;;
67896;SDS011;54698;48.428;9.964;2022-12-18T06:03:41;59.37;;;19.73;;
67896;SDS011;54698;48.428;9.964;2022-12-18T06:06:14;65.07;;;21.90;;
67896;SDS011;54698;48.428;9.964;2022-12-18T06:08:41;71.03;;;23.13;;
67896;SDS011;54698;48.428;9.964;2022-12-18T06:11:07;63.37;;;20.00;;
67896;SDS011;54698;48.428;9.964;2022-12-18T06:13:33;57.60;;;22.20;;
67896;SDS011;54698;48.428;9.964;2022-12-18T06:16:02;84.00;;;24.43;;
67896;SDS011;54698;48.428;9.964;2022-12-18T06:18:28;65.97;;;22.43;;
67896;SDS011;54698;48.428;9.964;2022-12-18T06:20:55;57.83;;;21.43;;
67896;SDS011;54698;48.428;9.964;2022-12-18T06:23:20;82.63;;;25.23;;
67896;SDS011;54698;48.428;9.964;2022-12-18T06:25:46;74.93;;;21.67;;
67896;SDS011;54698;48.428;9.964;2022-12-18T06:28:12;57.00;;;20.57;;
67896;SDS011;54698;48.428;9.964;2022-12-18T06:30:38;79.23;;;23.57;;
67896;SDS011;54698;48.428;9.964;2022-12-18T06:33:05;76.10;;;24.10;;
67896;SDS011;54698;48.428;9.964;2022-12-18T06:35:31;65.80;;;24.53;;
67896;SDS011;54698;48.428;9.964;2022-12-18T06:37:57;70.77;;;23.00;;
67896;SDS011;54698;48.428;9.964;2022-12-18T06:40:23;54.67;;;21.00;;
67896;SDS011;54698;48.428;9.964;2022-12-18T06:42:49;69.97;;;22.03;;
67896;SDS011;54698;48.428;9.964;2022-12-18T06:45:15;85.33;;;25.30;;
67896;SDS011;54698;48.428;9.964;2022-12-18T06:47:40;71.93;;;24.40;;
67896;SDS011;54698;48.428;9.964;2022-12-18T06:50:08;72.47;;;20.70;;
67896;SDS011;54698;48.428;9.964;2022-12-18T06:52:34;67.30;;;21.53;;
67896;SDS011;54698;48.428;9.964;2022-12-18T06:55:00;66.17;;;23.03;;
67896;SDS011;54698;48.428;9.964;2022-12-18T06:57:26;74.17;;;24.37;;
67896;SDS011;54698;48.428;9.964;2022-12-18T06:59:51;68.83;;;22.60;;
67896;SDS011;54698;48.428;9.964;2022-12-18T07:02:17;64.60;;;23.20;;
67896;SDS011;54698;48.428;9.964;2022-12-18T07:04:43;65.33;;;21.13;;
67896;SDS011;54698;48.428;9.964;2022-12-18T07:07:10;63.40;;;22.00;;
67896;SDS011;54698;48.428;9.964;2022-12-18T07:09:36;69.97;;;21.20;;
67896;SDS011;54698;48.428;9.964;2022-12-18T07:12:02;59.47;;;21.53;;
67896;SDS011;54698;48.428;9.964;2022-12-18T07:14:28;59.03;;;19.83;;
67896;SDS011;54698;48.428;9.964;2022-12-18T07:16:54;66.43;;;22.70;;
67896;SDS011;54698;48.428;9.964;2022-12-18T07:19:20;70.80;;;20.33;;
67896;SDS011;54698;48.428;9.964;2022-12-18T07:21:45;63.37;;;20.13;;
67896;SDS011;54698;48.428;9.964;2022-12-18T07:24:13;58.53;;;19.43;;
67896;SDS011;54698;48.428;9.964;2022-12-18T07:26:38;64.73;;;18.87;;
67896;SDS011;54698;48.428;9.964;2022-12-18T07:29:04;62.30;;;21.47;;
67896;SDS011;54698;48.428;9.964;2022-12-18T07:31:30;64.17;;;20.70;;
67896;SDS011;54698;48.428;9.964;2022-12-18T07:33:56;51.87;;;18.00;;
67896;SDS011;54698;48.428;9.964;2022-12-18T07:36:23;50.13;;;18.00;;
67896;SDS011;54698;48.428;9.964;2022-12-18T07:38:50;59.10;;;18.47;;
67896;SDS011;54698;48.428;9.964;2022-12-18T07:41:18;54.20;;;18.60;;
67896;SDS011;54698;48.428;9.964;2022-12-18T07:43:44;62.20;;;22.07;;
67896;SDS011;54698;48.428;9.964;2022-12-18T07:46:10;59.53;;;19.63;;
67896;SDS011;54698;48.428;9.964;2022-12-18T07:48:38;52.70;;;16.83;;
67896;SDS011;54698;48.428;9.964;2022-12-18T07:51:05;52.37;;;17.93;;
67896;SDS011;54698;48.428;9.964;2022-12-18T07:53:32;51.40;;;17.97;;
67896;SDS011;54698;48.428;9.964;2022-12-18T07:55:59;45.53;;;18.17;;
67896;SDS011;54698;48.428;9.964;2022-12-18T07:58:29;51.13;;;17.37;;
67896;SDS011;54698;48.428;9.964;2022-12-18T08:01:01;54.20;;;16.90;;
67896;SDS011;54698;48.428;9.964;2022-12-18T08:03:29;58.60;;;17.03;;
67896;SDS011;54698;48.428;9.964;2022-12-18T08:05:57;48.80;;;16.53;;
67896;SDS011;54698;48.428;9.964;2022-12-18T08:08:25;48.83;;;17.37;;
67896;SDS011;54698;48.428;9.964;2022-12-18T08:10:50;57.07;;;16.67;;
67896;SDS011;54698;48.428;9.964;2022-12-18T08:13:16;49.37;;;18.70;;
67896;SDS011;54698;48.428;9.964;2022-12-18T08:15:44;44.30;;;17.27;;
67896;SDS011;54698;48.428;9.964;2022-12-18T08:18:09;48.90;;;18.37;;
67896;SDS011;54698;48.428;9.964;2022-12-18T08:20:35;53.50;;;16.27;;
67896;SDS011;54698;48.428;9.964;2022-12-18T08:23:01;54.97;;;18.77;;
67896;SDS011;54698;48.428;9.964;2022-12-18T08:25:27;55.93;;;15.93;;
67896;SDS011;54698;48.428;9.964;2022-12-18T08:27:53;45.13;;;18.30;;
67896;SDS011;54698;48.428;9.964;2022-12-18T08:30:18;51.53;;;16.00;;
67896;SDS011;54698;48.428;9.964;2022-12-18T08:32:45;44.43;;;15.67;;
67896;SDS011;54698;48.428;9.964;2022-12-18T08:35:11;47.40;;;16.67;;
67896;SDS011;54698;48.428;9.964;2022-12-18T08:37:37;34.23;;;13.00;;
67896;SDS011;54698;48.428;9.964;2022-12-18T08:40:04;41.50;;;14.60;;
67896;SDS011;54698;48.428;9.964;2022-12-18T08:42:34;38.60;;;14.30;;
67896;SDS011;54698;48.428;9.964;2022-12-18T08:45:00;32.57;;;14.37;;
67896;SDS011;54698;48.428;9.964;2022-12-18T08:47:26;46.40;;;17.23;;
67896;SDS011;54698;48.428;9.964;2022-12-18T08:49:54;46.70;;;16.10;;
67896;SDS011;54698;48.428;9.964;2022-12-18T08:52:20;40.70;;;15.00;;
67896;SDS011;54698;48.428;9.964;2022-12-18T08:54:46;33.67;;;15.03;;
67896;SDS011;54698;48.428;9.964;2022-12-18T08:57:11;48.50;;;14.97;;
67896;SDS011;54698;48.428;9.964;2022-12-18T08:59:37;36.43;;;14.03;;
67896;SDS011;54698;48.428;9.964;2022-12-18T09:02:03;42.13;;;15.70;;
67896;SDS011;54698;48.428;9.964;2022-12-18T09:04:29;42.73;;;17.67;;
67896;SDS011;54698;48.428;9.964;2022-12-18T09:06:58;36.13;;;14.13;;
67896;SDS011;54698;48.428;9.964;2022-12-18T09:09:24;38.40;;;14.57;;
67896;SDS011;54698;48.428;9.964;2022-12-18T09:11:49;39.80;;;16.10;;
67896;SDS011;54698;48.428;9.964;2022-12-18T09:14:15;42.07;;;13.93;;
67896;SDS011;54698;48.428;9.964;2022-12-18T09:16:41;38.77;;;13.70;;
67896;SDS011;54698;48.428;9.964;2022-12-18T09:19:08;37.20;;;16.57;;
67896;SDS011;54698;48.428;9.964;2022-12-18T09:21:38;43.40;;;14.80;;
67896;SDS011;54698;48.428;9.964;2022-12-18T09:24:05;38.07;;;13.93;;
67896;SDS011;54698;48.428;9.964;2022-12-18T09:26:33;36.37;;;13.87;;
67896;SDS011;54698;48.428;9.964;2022-12-18T09:28:59;34.87;;;12.73;;
67896;SDS011;54698;48.428;9.964;2022-12-18T09:31:25;37.80;;;14.27;;
67896;SDS011;54698;48.428;9.964;2022-12-18T09:33:51;43.70;;;14.50;;
67896;SDS011;54698;48.428;9.964;2022-12-18T09:36:17;38.50;;;15.07;;
67896;SDS011;54698;48.428;9.964;2022-12-18T09:38:43;39.80;;;15.57;;
67896;SDS011;54698;48.428;9.964;2022-12-18T09:41:15;31.03;;;12.40;;
67896;SDS011;54698;48.428;9.964;2022-12-18T09:44:11;41.13;;;15.20;;
67896;SDS011;54698;48.428;9.964;2022-12-18T09:46:48;35.33;;;14.00;;
67896;SDS011;54698;48.428;9.964;2022-12-18T09:49:23;39.53;;;13.33;;
67896;SDS011;54698;48.428;9.964;2022-12-18T09:51:54;38.30;;;13.33;;
67896;SDS011;54698;48.428;9.964;2022-12-18T09:54:25;42.40;;;15.13;;
67896;SDS011;54698;48.428;9.964;2022-12-18T09:56:59;45.17;;;15.75;;
67896;SDS011;54698;48.428;9.964;2022-12-18T09:59:25;41.03;;;15.90;;
67896;SDS011;54698;48.428;9.964;2022-12-18T10:01:56;40.27;;;13.73;;
67896;SDS011;54698;48.428;9.964;2022-12-18T10:04:23;43.70;;;15.43;;
67896;SDS011;54698;48.428;9.964;2022-12-18T10:06:52;36.73;;;15.13;;
67896;SDS011;54698;48.428;9.964;2022-12-18T10:09:27;36.43;;;13.13;;
67896;SDS011;54698;48.428;9.964;2022-12-18T10:12:05;40.33;;;15.63;;
67896;SDS011;54698;48.428;9.964;2022-12-18T10:14:41;42.13;;;14.53;;
67896;SDS011;54698;48.428;9.964;2022-12-18T10:17:18;45.17;;;15.90;;
67896;SDS011;54698;48.428;9.964;2022-12-18T10:19:52;38.47;;;13.33;;
67896;SDS011;54698;48.428;9.964;2022-12-18T10:22:26;41.67;;;16.37;;
67896;SDS011;54698;48.428;9.964;2022-12-18T10:25:04;36.50;;;14.40;;
67896;SDS011;54698;48.428;9.964;2022-12-18T10:27:42;41.07;;;16.77;;
67896;SDS011;54698;48.428;9.964;2022-12-18T10:30:12;42.70;;;14.90;;
67896;SDS011;54698;48.428;9.964;2022-12-18T10:32:40;36.95;;;14.20;;
67896;SDS011;54698;48.428;9.964;2022-12-18T10:35:07;45.07;;;16.20;;
67896;SDS011;54698;48.428;9.964;2022-12-18T10:40:29;44.67;;;17.20;;
67896;SDS011;54698;48.428;9.964;2022-12-18T10:43:11;42.37;;;15.47;;
67896;SDS011;54698;48.428;9.964;2022-12-18T10:45:38;34.20;;;13.63;;
67896;SDS011;54698;48.428;9.964;2022-12-18T10:48:05;36.60;;;15.90;;
67896;SDS011;54698;48.428;9.964;2022-12-18T10:50:45;42.57;;;14.33;;
67896;SDS011;54698;48.428;9.964;2022-12-18T10:53:16;41.40;;;15.30;;
67896;SDS011;54698;48.428;9.964;2022-12-18T10:55:45;38.03;;;15.07;;
67896;SDS011;54698;48.428;9.964;2022-12-18T10:58:23;39.20;;;15.13;;
67896;SDS011;54698;48.428;9.964;2022-12-18T11:01:02;39.90;;;14.03;;
67896;SDS011;54698;48.428;9.964;2022-12-18T11:03:32;44.10;;;15.73;;
67896;SDS011;54698;48.428;9.964;2022-12-18T11:06:04;45.17;;;14.13;;
67896;SDS011;54698;48.428;9.964;2022-12-18T11:08:34;50.93;;;16.50;;
67896;SDS011;54698;48.428;9.964;2022-12-18T11:11:00;40.83;;;14.40;;
67896;SDS011;54698;48.428;9.964;2022-12-18T11:13:28;35.73;;;14.50;;
67896;SDS011;54698;48.428;9.964;2022-12-18T11:15:55;37.83;;;15.63;;
67896;SDS011;54698;48.428;9.964;2022-12-18T11:18:23;41.27;;;15.43;;
67896;SDS011;54698;48.428;9.964;2022-12-18T11:20:53;36.17;;;14.67;;
67896;SDS011;54698;48.428;9.964;2022-12-18T11:23:21;35.47;;;15.87;;
67896;SDS011;54698;48.428;9.964;2022-12-18T11:25:52;37.97;;;14.57;;
67896;SDS011;54698;48.428;9.964;2022-12-18T11:33:56;42.43;;;15.67;;
67896;SDS011;54698;48.428;9.964;2022-12-18T11:36:31;39.80;;;14.67;;
67896;SDS011;54698;48.428;9.964;2022-12-18T11:39:05;33.97;;;12.32;;
67896;SDS011;54698;48.428;9.964;2022-12-18T11:41:45;39.80;;;13.40;;
67896;SDS011;54698;48.428;9.964;2022-12-18T11:44:20;42.93;;;14.13;;
67896;SDS011;54698;48.428;9.964;2022-12-18T11:46:55;37.00;;;13.80;;
67896;SDS011;54698;48.428;9.964;2022-12-18T11:49:26;44.50;;;15.38;;
67896;SDS011;54698;48.428;9.964;2022-12-18T11:51:58;35.67;;;12.90;;
67896;SDS011;54698;48.428;9.964;2022-12-18T11:54:29;43.70;;;16.60;;
67896;SDS011;54698;48.428;9.964;2022-12-18T11:56:56;30.20;;;12.57;;
67896;SDS011;54698;48.428;9.964;2022-12-18T11:59:33;36.83;;;15.03;;
67896;SDS011;54698;48.428;9.964;2022-12-18T12:02:17;35.67;;;14.60;;
67896;SDS011;54698;48.428;9.964;2022-12-18T12:05:09;38.13;;;14.30;;
67896;SDS011;54698;48.428;9.964;2022-12-18T12:07:51;37.33;;;14.03;;
67896;SDS011;54698;48.428;9.964;2022-12-18T12:10:26;41.80;;;13.17;;
67896;SDS011;54698;48.428;9.964;2022-12-18T12:13:17;34.70;;;12.30;;
67896;SDS011;54698;48.428;9.964;2022-12-18T12:16:02;32.07;;;12.30;;
67896;SDS011;54698;48.428;9.964;2022-12-18T12:18:41;32.23;;;13.37;;
67896;SDS011;54698;48.428;9.964;2022-12-18T12:21:26;33.40;;;12.87;;
67896;SDS011;54698;48.428;9.964;2022-12-18T12:24:08;36.23;;;12.13;;
67896;SDS011;54698;48.428;9.964;2022-12-18T12:26:49;34.63;;;12.68;;
67896;SDS011;54698;48.428;9.964;2022-12-18T12:29:28;33.17;;;12.73;;
67896;SDS011;54698;48.428;9.964;2022-12-18T12:32:13;31.75;;;13.55;;
67896;SDS011;54698;48.428;9.964;2022-12-18T12:34:53;29.45;;;11.73;;
67896;SDS011;54698;48.428;9.964;2022-12-18T12:37:34;32.73;;;11.87;;
67896;SDS011;54698;48.428;9.964;2022-12-18T12:40:12;38.93;;;15.13;;
67896;SDS011;54698;48.428;9.964;2022-12-18T12:42:42;32.17;;;11.90;;
67896;SDS011;54698;48.428;9.964;2022-12-18T12:45:16;35.40;;;13.52;;
67896;SDS011;54698;48.428;9.964;2022-12-18T12:47:49;33.97;;;13.23;;
67896;SDS011;54698;48.428;9.964;2022-12-18T12:50:18;34.00;;;13.47;;
67896;SDS011;54698;48.428;9.964;2022-12-18T12:52:45;34.10;;;15.83;;
67896;SDS011;54698;48.428;9.964;2022-12-18T12:55:17;36.13;;;13.60;;
67896;SDS011;54698;48.428;9.964;2022-12-18T12:57:46;38.93;;;12.13;;
67896;SDS011;54698;48.428;9.964;2022-12-18T13:00:21;33.63;;;12.80;;
67896;SDS011;54698;48.428;9.964;2022-12-18T13:02:47;33.93;;;12.00;;
67896;SDS011;54698;48.428;9.964;2022-12-18T13:05:22;33.47;;;11.97;;
67896;SDS011;54698;48.428;9.964;2022-12-18T13:07:51;34.10;;;13.07;;
67896;SDS011;54698;48.428;9.964;2022-12-18T13:10:31;29.97;;;12.07;;
67896;SDS011;54698;48.428;9.964;2022-12-18T13:13:01;33.10;;;11.17;;
67896;SDS011;54698;48.428;9.964;2022-12-18T13:15:31;31.47;;;13.00;;
67896;SDS011;54698;48.428;9.964;2022-12-18T13:18:04;27.20;;;10.77;;
67896;SDS011;54698;48.428;9.964;2022-12-18T13:20:39;31.87;;;12.47;;
67896;SDS011;54698;48.428;9.964;2022-12-18T13:23:27;33.30;;;12.70;;
67896;SDS011;54698;48.428;9.964;2022-12-18T13:25:58;30.63;;;12.03;;
67896;SDS011;54698;48.428;9.964;2022-12-18T13:28:59;31.70;;;12.07;;
67896;SDS011;54698;48.428;9.964;2022-12-18T13:34:41;39.13;;;11.67;;
67896;SDS011;54698;48.428;9.964;2022-12-18T13:43:26;30.93;;;11.60;;
67896;SDS011;54698;48.428;9.964;2022-12-18T13:45:59;31.37;;;11.43;;
67896;SDS011;54698;48.428;9.964;2022-12-18T13:48:32;30.10;;;13.77;;
67896;SDS011;54698;48.428;9.964;2022-12-18T13:51:03;37.10;;;12.50;;
67896;SDS011;54698;48.428;9.964;2022-12-18T13:53:33;32.97;;;12.47;;
67896;SDS011;54698;48.428;9.964;2022-12-18T13:56:03;26.33;;;11.52;;
67896;SDS011;54698;48.428;9.964;2022-12-18T13:58:31;26.83;;;12.27;;
67896;SDS011;54698;48.428;9.964;2022-12-18T14:00:57;31.77;;;12.67;;
67896;SDS011;54698;48.428;9.964;2022-12-18T14:03:24;26.93;;;10.87;;
67896;SDS011;54698;48.428;9.964;2022-12-18T14:05:56;30.07;;;12.57;;
67896;SDS011;54698;48.428;9.964;2022-12-18T14:08:27;33.60;;;11.33;;
67896;SDS011;54698;48.428;9.964;2022-12-18T14:10:59;33.42;;;10.75;;
67896;SDS011;54698;48.428;9.964;2022-12-18T14:13:26;32.63;;;12.27;;
67896;SDS011;54698;48.428;9.964;2022-12-18T14:15:57;43.33;;;13.40;;
67896;SDS011;54698;48.428;9.964;2022-12-18T14:18:28;29.40;;;13.40;;
67896;SDS011;54698;48.428;9.964;2022-12-18T14:21:03;33.23;;;13.27;;
67896;SDS011;54698;48.428;9.964;2022-12-18T14:23:31;27.37;;;10.70;;
67896;SDS011;54698;48.428;9.964;2022-12-18T14:25:59;34.03;;;11.77;;
67896;SDS011;54698;48.428;9.964;2022-12-18T14:28:27;35.93;;;11.77;;
67896;SDS011;54698;48.428;9.964;2022-12-18T14:30:54;37.40;;;12.80;;
67896;SDS011;54698;48.428;9.964;2022-12-18T14:33:21;27.67;;;11.67;;
67896;SDS011;54698;48.428;9.964;2022-12-18T14:35:53;28.67;;;12.50;;
67896;SDS011;54698;48.428;9.964;2022-12-18T14:40:54;36.50;;;11.77;;
67896;SDS011;54698;48.428;9.964;2022-12-18T14:43:27;30.20;;;13.17;;
67896;SDS011;54698;48.428;9.964;2022-12-18T14:45:56;35.50;;;12.43;;
67896;SDS011;54698;48.428;9.964;2022-12-18T14:48:25;35.70;;;13.67;;
67896;SDS011;54698;48.428;9.964;2022-12-18T14:51:03;32.80;;;11.90;;
67896;SDS011;54698;48.428;9.964;2022-12-18T14:53:33;31.97;;;12.57;;
67896;SDS011;54698;48.428;9.964;2022-12-18T14:56:03;32.67;;;12.73;;
67896;SDS011;54698;48.428;9.964;2022-12-18T14:58:43;33.30;;;11.57;;
67896;SDS011;54698;48.428;9.964;2022-12-18T15:01:18;43.33;;;13.90;;